Time;durP1;ratioP1;P1;durP2;ratioP2;P2;SDS_P1;SDS_P2;PMS_P1;PMS_P2;Temp;Humidity;BMP_temperature;BMP_pressure;BME280_temperature;BME280_humidity;BME280_pressure;Samples;Min_cycle;Max_cycle;Signal;HPM_P1;HPM_P2
2022/05/12 00:01:21;;;;;;;13.87;4.10;;;;;;;12.00;100.00;98520.84;7391506;19;20766;-58
2022/05/12 00:03:50;;;;;;;16.00;4.40;;;;;;;12.04;100.00;98524.31;7388889;19;20438;-52
2022/05/12 00:06:20;;;;;;;16.53;4.77;;;;;;;12.07;100.00;98523.44;7401157;19;20433;-59
2022/05/12 00:08:52;;;;;;;8.43;3.50;;;;;;;12.12;100.00;98552.75;7392789;19;20491;-58
2022/05/12 00:11:22;;;;;;;11.30;3.53;;;;;;;12.16;100.00;98554.47;7403635;19;20825;-57
2022/05/12 00:13:51;;;;;;;15.73;4.33;;;;;;;12.13;100.00;98552.75;7392178;19;20422;-53
2022/05/12 00:16:20;;;;;;;9.60;4.00;;;;;;;12.07;100.00;98549.28;7400732;19;20437;-53
2022/05/12 00:18:50;;;;;;;16.23;4.83;;;;;;;12.02;100.00;98546.69;7393813;19;20809;-58
2022/05/12 00:21:20;;;;;;;12.10;3.70;;;;;;;12.00;100.00;98538.91;7400624;19;20401;-58
2022/05/12 00:23:58;;;;;;;15.07;3.40;;;;;;;12.01;100.00;98535.47;7394424;19;20439;-55
2022/05/12 00:26:28;;;;;;;15.20;4.53;;;;;;;11.98;100.00;98535.47;7400022;19;20436;-59
2022/05/12 00:28:59;;;;;;;15.30;4.00;;;;;;;11.91;100.00;98531.19;7394918;19;20446;-57
2022/05/12 00:31:30;;;;;;;15.97;4.30;;;;;;;11.84;100.00;98524.28;7402234;19;20415;-55
2022/05/12 00:33:59;;;;;;;17.80;4.73;;;;;;;11.81;100.00;98511.34;7393024;19;20456;-58
2022/05/12 00:36:29;;;;;;;10.90;3.43;;;;;;;11.81;100.00;98507.06;7399399;19;20755;-58
2022/05/12 00:39:01;;;;;;;15.93;4.40;;;;;;;11.83;100.00;98504.44;7392403;19;20463;-58
2022/05/12 00:41:30;;;;;;;20.93;4.83;;;;;;;11.84;100.00;98501.03;7399287;19;20414;-58
2022/05/12 00:44:04;;;;;;;14.30;5.10;;;;;;;11.83;100.00;98509.63;7392896;19;20446;-58
2022/05/12 00:46:35;;;;;;;11.40;3.83;;;;;;;11.83;100.00;98512.19;7397539;19;20448;-59
2022/05/12 00:49:07;;;;;;;8.23;4.13;;;;;;;11.88;100.00;98503.59;7393932;19;20448;-58
2022/05/12 00:51:41;;;;;;;14.13;5.47;;;;;;;11.91;100.00;98507.91;7400174;19;20401;-58
2022/05/12 00:54:17;;;;;;;12.93;4.70;;;;;;;11.92;100.00;98493.25;7391565;19;20432;-58
2022/05/12 00:56:47;;;;;;;10.37;4.60;;;;;;;11.91;100.00;98492.41;7397567;19;20448;-56
2022/05/12 00:59:21;;;;;;;13.57;5.73;;;;;;;11.92;100.00;98491.56;7391845;19;20958;-58
2022/05/12 01:01:51;;;;;;;16.97;5.03;;;;;;;11.93;100.00;98489.81;7397860;19;20399;-57
2022/05/12 01:04:22;;;;;;;9.70;3.83;;;;;;;11.93;100.00;98489.81;7390848;19;20465;-59
2022/05/12 01:06:52;;;;;;;14.07;3.83;;;;;;;11.92;100.00;98481.22;7396722;19;20540;-56
2022/05/12 01:09:24;;;;;;;8.97;4.60;;;;;;;11.96;100.00;98487.25;7390686;19;20969;-58
2022/05/12 01:11:54;;;;;;;11.93;5.00;;;;;;;11.98;100.00;98494.13;7399276;19;20918;-58
2022/05/12 01:14:23;;;;;;;14.97;5.40;;;;;;;11.97;100.00;98479.50;7388791;19;20556;-58
2022/05/12 01:16:55;;;;;;;13.73;4.80;;;;;;;12.00;100.00;98476.91;7395899;19;20442;-60
2022/05/12 01:19:26;;;;;;;7.77;3.17;;;;;;;12.02;100.00;98485.50;7394637;19;20793;-54
2022/05/12 01:21:56;;;;;;;10.57;3.37;;;;;;;12.05;100.00;98482.09;7396877;19;20425;-55
2022/05/12 01:24:33;;;;;;;14.00;3.90;;;;;;;12.10;100.00;98482.09;7393632;19;20453;-56
2022/05/12 01:27:18;;;;;;;12.27;4.87;;;;;;;12.14;100.00;98488.97;7398153;19;20405;-59
2022/05/12 01:29:49;;;;;;;14.57;5.40;;;;;;;12.15;100.00;98498.44;7394202;19;20518;-57
2022/05/12 01:32:19;;;;;;;17.83;5.47;;;;;;;12.17;100.00;98498.44;7398148;19;21021;-54
2022/05/12 01:34:49;;;;;;;13.00;5.03;;;;;;;12.19;100.00;98505.34;7391231;19;20790;-59
2022/05/12 01:37:19;;;;;;;9.77;4.57;;;;;;;12.22;100.00;98507.06;7398119;19;20405;-59
2022/05/12 01:39:52;;;;;;;9.43;4.27;;;;;;;12.19;100.00;98515.69;7381837;19;20445;-56
2022/05/12 01:42:22;;;;;;;11.20;5.20;;;;;;;12.18;100.00;98515.69;7398484;19;20407;-59
2022/05/12 01:44:52;;;;;;;16.43;4.63;;;;;;;12.15;100.00;98501.03;7391855;19;20476;-53
2022/05/12 01:47:21;;;;;;;9.40;3.93;;;;;;;12.15;100.00;98517.41;7399846;19;20404;-60
2022/05/12 01:49:50;;;;;;;10.07;4.60;;;;;;;12.10;100.00;98524.31;7393763;19;20834;-54
2022/05/12 01:52:20;;;;;;;10.00;3.30;;;;;;;12.08;100.00;98545.84;7398522;19;20445;-55
2022/05/12 01:54:52;;;;;;;9.33;4.30;;;;;;;12.09;100.00;98563.06;7391021;19;20480;-56
2022/05/12 01:57:22;;;;;;;9.57;4.57;;;;;;;12.11;100.00;98571.72;7398244;19;20397;-56
2022/05/12 01:59:52;;;;;;;11.20;4.33;;;;;;;12.10;100.00;98573.41;7389585;19;20445;-58
2022/05/12 02:02:22;;;;;;;6.87;2.90;;;;;;;12.12;100.00;98594.97;7397142;19;20412;-58
2022/05/12 02:04:51;;;;;;;7.40;4.03;;;;;;;12.16;100.00;98595.84;7388435;19;20971;-55
2022/05/12 02:07:21;;;;;;;7.80;4.60;;;;;;;12.14;100.00;98603.59;7397941;19;20397;-55
2022/05/12 02:09:53;;;;;;;10.20;3.70;;;;;;;12.15;100.00;98609.59;7389524;19;20460;-59
2022/05/12 02:12:22;;;;;;;7.40;3.10;;;;;;;12.15;100.00;98625.13;7397972;19;20747;-56
2022/05/12 02:14:52;;;;;;;7.73;3.33;;;;;;;12.13;100.00;98635.47;7389577;19;20457;-59
2022/05/12 02:17:21;;;;;;;6.13;3.73;;;;;;;12.10;100.00;98644.94;7397193;19;20411;-57
2022/05/12 02:19:51;;;;;;;5.90;3.30;;;;;;;12.03;100.00;98654.38;7393671;19;20451;-54
2022/05/12 02:22:20;;;;;;;7.80;4.40;;;;;;;11.87;100.00;98674.13;7397448;19;20857;-59
2022/05/12 02:24:52;;;;;;;13.73;4.97;;;;;;;11.62;100.00;98676.63;7389959;19;20552;-58
2022/05/12 02:27:22;;;;;;;11.90;5.97;;;;;;;11.55;100.00;98680.91;7396478;19;20401;-57
2022/05/12 02:29:54;;;;;;;9.47;4.90;;;;;;;11.41;100.00;98693.75;7390620;19;20435;-59
2022/05/12 02:32:27;;;;;;;15.53;5.50;;;;;;;11.35;100.00;98709.22;7398004;19;20396;-55
2022/05/12 02:34:57;;;;;;;19.80;6.37;;;;;;;11.33;100.00;98713.47;7389448;19;20459;-58
2022/05/12 02:37:27;;;;;;;14.47;6.30;;;;;;;11.34;100.00;98734.16;7397807;19;20408;-57
2022/05/12 02:39:59;;;;;;;12.37;6.00;;;;;;;11.26;100.00;98750.44;7389723;19;20463;-55
2022/05/12 02:42:29;;;;;;;10.50;5.27;;;;;;;11.16;100.00;98765.88;7396110;19;20418;-57
2022/05/12 02:44:58;;;;;;;16.07;7.30;;;;;;;11.17;100.00;98772.75;7396143;19;20478;-59
2022/05/12 02:47:28;;;;;;;12.57;5.20;;;;;;;11.11;100.00;98783.03;7396160;19;20922;-57
2022/05/12 02:49:57;;;;;;;17.63;5.30;;;;;;;11.02;100.00;98788.97;7392404;19;20435;-57
2022/05/12 02:52:27;;;;;;;3.53;2.50;;;;;;;10.81;100.00;98818.03;7396548;19;20418;-57
2022/05/12 02:55:00;;;;;;;3.70;2.13;;;;;;;10.66;100.00;98847.09;7390566;19;20463;-59
2022/05/12 02:57:29;;;;;;;6.70;1.80;;;;;;;10.59;100.00;98876.25;7396066;19;20387;-57
2022/05/12 02:59:59;;;;;;;5.93;1.60;;;;;;;10.52;100.00;98907.13;7397477;19;20451;-56
2022/05/12 03:02:28;;;;;;;2.63;2.00;;;;;;;10.58;100.00;98923.53;7394626;19;20411;-55
2022/05/12 03:04:58;;;;;;;30.17;14.63;;;;;;;10.66;100.00;98950.25;7395233;19;20537;-57
2022/05/12 03:07:27;;;;;;;9.50;4.73;;;;;;;10.60;100.00;98953.66;7395117;19;20399;-52
2022/05/12 03:09:59;;;;;;;12.30;7.13;;;;;;;10.56;100.00;98984.53;7390346;19;20932;-55
2022/05/12 03:12:30;;;;;;;2.97;2.07;;;;;;;10.52;100.00;98999.09;7395179;19;20396;-56
2022/05/12 03:15:00;;;;;;;29.57;17.43;;;;;;;10.69;100.00;99008.75;7395261;19;20463;-59
2022/05/12 03:17:31;;;;;;;7.00;2.57;;;;;;;10.53;100.00;99016.31;7394968;19;20406;-59
2022/05/12 03:20:01;;;;;;;3.37;2.17;;;;;;;10.57;100.00;99033.56;7396102;19;20435;-57
2022/05/12 03:22:30;;;;;;;7.30;3.83;;;;;;;10.63;100.00;99061.16;7391515;19;20407;-56
2022/05/12 03:25:03;;;;;;;5.53;2.90;;;;;;;10.51;100.00;99069.59;7394983;19;20449;-57
2022/05/12 03:27:34;;;;;;;4.33;2.77;;;;;;;10.37;100.00;99085.66;7390199;19;20751;-60
2022/05/12 03:30:03;;;;;;;5.10;2.23;;;;;;;10.29;100.00;99100.13;7394314;19;20398;-57
2022/05/12 03:32:33;;;;;;;3.23;1.60;;;;;;;10.24;100.00;99112.06;7390542;19;20395;-61
2022/05/12 03:35:03;;;;;;;5.20;2.20;;;;;;;10.18;100.00;99123.16;7392780;19;20434;-56
2022/05/12 03:37:33;;;;;;;8.47;2.20;;;;;;;10.14;100.00;99134.25;7395320;19;20403;-57
2022/05/12 03:40:06;;;;;;;4.60;2.40;;;;;;;10.19;100.00;99139.47;7403117;19;20438;-54
2022/05/12 03:42:35;;;;;;;4.83;2.20;;;;;;;10.13;100.00;99154.00;7393269;19;20474;-58
2022/05/12 03:45:03;;;;;;;8.73;1.93;;;;;;;10.12;100.00;99165.13;7400584;19;20415;-56
2022/05/12 03:47:34;;;;;;;7.43;2.40;;;;;;;10.11;100.00;99168.56;7400059;19;20409;-59
2022/05/12 03:50:08;;;;;;;4.47;2.17;;;;;;;10.07;100.00;99176.22;7402028;19;20420;-55
2022/05/12 03:52:38;;;;;;;6.57;2.70;;;;;;;10.04;100.00;99186.47;7397150;19;20414;-59
2022/05/12 03:55:16;;;;;;;7.00;3.20;;;;;;;10.00;100.00;99190.66;7400134;19;20453;-56
2022/05/12 03:57:48;;;;;;;5.60;3.03;;;;;;;10.08;100.00;99193.41;7394908;19;20766;-59
2022/05/12 04:00:21;;;;;;;8.87;2.90;;;;;;;10.05;100.00;99207.09;7401234;19;20406;-55
2022/05/12 04:02:51;;;;;;;9.73;3.20;;;;;;;9.99;100.00;99223.31;7393163;19;20407;-56
2022/05/12 04:05:20;;;;;;;8.80;2.37;;;;;;;9.92;100.00;99226.63;7399812;19;20431;-58
2022/05/12 04:07:52;;;;;;;6.33;3.10;;;;;;;9.98;100.00;99239.63;7394561;19;20416;-57
2022/05/12 04:10:25;;;;;;;4.20;2.80;;;;;;;9.93;100.00;99246.38;7400764;19;20428;-57
2022/05/12 04:12:55;;;;;;;9.10;3.60;;;;;;;9.93;100.00;99266.09;7395788;19;20403;-57
2022/05/12 04:15:25;;;;;;;16.20;4.03;;;;;;;9.82;100.00;99284.81;7398702;19;20425;-57
2022/05/12 04:17:59;;;;;;;11.20;3.67;;;;;;;9.86;100.00;99289.16;7394873;19;20410;-53
2022/05/12 04:20:29;;;;;;;6.60;2.90;;;;;;;9.79;100.00;99305.34;7401810;19;20413;-56
2022/05/12 04:22:59;;;;;;;6.60;3.27;;;;;;;9.85;100.00;99323.50;7391729;19;20410;-54
2022/05/12 04:25:31;;;;;;;8.30;3.53;;;;;;;9.88;100.00;99351.03;7399807;19;20780;-56
2022/05/12 04:28:01;;;;;;;6.90;3.50;;;;;;;9.87;100.00;99359.59;7392850;19;20490;-57
2022/05/12 04:30:31;;;;;;;12.20;4.27;;;;;;;9.89;100.00;99369.94;7401248;19;20412;-59
2022/05/12 04:35:11;;;;;;;13.43;4.17;;;;;;;9.83;100.00;99378.41;7390650;19;20415;-55
2022/05/12 04:35:47;;;;;;;10.13;4.03;;;;;;;9.86;100.00;99405.09;7399258;19;20443;-58
2022/05/12 04:38:17;;;;;;;7.03;3.80;;;;;;;9.91;100.00;99410.38;7391019;19;20419;-57
2022/05/12 04:40:52;;;;;;;15.53;4.00;;;;;;;9.95;100.00;99409.59;7401128;19;20424;-59
2022/05/12 04:43:21;;;;;;;12.07;4.40;;;;;;;10.02;100.00;99420.03;7391292;19;20418;-58
2022/05/12 04:45:51;;;;;;;8.60;3.93;;;;;;;10.02;100.00;99423.50;7398586;19;20443;-54
2022/05/12 04:48:25;;;;;;;9.97;4.23;;;;;;;9.99;100.00;99431.13;7392531;19;20454;-58
2022/05/12 04:50:54;;;;;;;11.93;4.67;;;;;;;10.06;100.00;99425.28;7400509;19;20424;-56
2022/05/12 04:53:25;;;;;;;11.50;5.43;;;;;;;10.09;100.00;99427.94;7390368;19;20438;-55
2022/05/12 04:55:57;;;;;;;11.73;5.30;;;;;;;10.10;100.00;99444.28;7398442;19;20431;-58
2022/05/12 04:58:27;;;;;;;14.27;4.23;;;;;;;10.12;100.00;99455.50;7368953;19;20445;-56
2022/05/12 05:00:56;;;;;;;9.03;4.03;;;;;;;10.09;100.00;99451.16;7399218;19;20784;-55
2022/05/12 05:03:27;;;;;;;12.43;4.53;;;;;;;10.03;100.00;99470.72;7389021;19;20423;-58
2022/05/12 05:05:56;;;;;;;7.53;4.30;;;;;;;9.97;100.00;99489.50;7398220;19;20430;-58
2022/05/12 05:08:26;;;;;;;9.40;3.83;;;;;;;9.98;100.00;99486.09;7390090;19;21304;-54
2022/05/12 05:10:58;;;;;;;12.20;4.40;;;;;;;10.02;100.00;99498.22;7398949;19;20399;-59
2022/05/12 05:13:28;;;;;;;14.10;4.27;;;;;;;10.03;100.00;99512.84;7391627;19;20802;-56
2022/05/12 05:15:58;;;;;;;10.80;4.20;;;;;;;10.07;100.00;99509.53;7397439;19;20438;-58
2022/05/12 05:18:27;;;;;;;9.70;3.90;;;;;;;10.08;100.00;99515.53;7393333;19;20426;-57
2022/05/12 05:20:57;;;;;;;10.77;4.03;;;;;;;9.99;100.00;99534.22;7397984;19;20432;-59
2022/05/12 05:23:27;;;;;;;8.47;3.83;;;;;;;9.98;100.00;99537.63;7385172;19;20429;-58
2022/05/12 05:25:59;;;;;;;11.97;4.97;;;;;;;10.03;100.00;99546.34;7395815;19;20442;-58
2022/05/12 05:28:28;;;;;;;11.87;4.20;;;;;;;10.00;100.00;99559.13;7390491;19;20781;-57
2022/05/12 05:30:58;;;;;;;9.90;3.87;;;;;;;10.08;100.00;99572.22;7396956;19;20409;-60
2022/05/12 05:33:28;;;;;;;13.63;4.17;;;;;;;10.11;100.00;99580.91;7387715;19;20742;-57
2022/05/12 05:35:57;;;;;;;12.47;4.90;;;;;;;10.19;100.00;99585.38;7398603;19;20432;-56
2022/05/12 05:38:27;;;;;;;12.40;4.77;;;;;;;10.16;100.00;99598.19;7389293;19;20933;-60
2022/05/12 05:40:59;;;;;;;11.03;3.83;;;;;;;10.20;100.00;99607.75;7399756;19;20415;-57
2022/05/12 05:43:29;;;;;;;13.53;4.03;;;;;;;10.20;100.00;99612.91;7390202;19;20418;-54
2022/05/12 05:45:58;;;;;;;11.43;3.70;;;;;;;10.25;100.00;99617.34;7397754;19;20427;-55
2022/05/12 05:48:28;;;;;;;11.67;3.87;;;;;;;10.39;100.00;99625.41;7389755;19;20439;-54
2022/05/12 05:53:41;;;;;;;7.13;3.73;;;;;;;10.47;100.00;99635.06;7389142;19;20482;-58
2022/05/12 05:56:15;;;;;;;11.90;3.47;;;;;;;10.45;100.00;99636.75;7397698;19;20426;-58
2022/05/12 05:58:44;;;;;;;9.70;4.60;;;;;;;10.43;100.00;99648.72;7387082;19;20417;-52
2022/05/12 06:01:16;;;;;;;11.20;3.50;;;;;;;10.52;100.00;99643.81;7392966;19;20481;-60
2022/05/12 06:03:46;;;;;;;12.27;3.50;;;;;;;10.60;100.00;99651.69;7386252;19;20953;-60
2022/05/12 06:06:16;;;;;;;9.20;3.10;;;;;;;10.53;100.00;99658.44;7393030;19;20434;-59
2022/05/12 06:08:46;;;;;;;9.90;4.47;;;;;;;10.55;100.00;99656.75;7387817;19;20422;-57
2022/05/12 06:11:18;;;;;;;17.30;3.90;;;;;;;10.59;100.00;99670.59;7393811;19;20451;-59
2022/05/12 06:13:48;;;;;;;9.80;3.80;;;;;;;10.73;100.00;99668.34;7387037;19;20806;-58
2022/05/12 06:16:19;;;;;;;12.47;4.33;;;;;;;10.80;100.00;99675.41;7392609;19;20420;-57
2022/05/12 06:18:48;;;;;;;14.60;5.97;;;;;;;10.94;100.00;99684.31;7387579;19;20423;-56
2022/05/12 06:21:18;;;;;;;8.30;3.33;;;;;;;10.97;100.00;99693.00;7394078;19;20920;-59
2022/05/12 06:23:48;;;;;;;19.50;9.87;;;;;;;11.05;100.00;99702.66;7384451;19;20435;-55
2022/05/12 06:26:20;;;;;;;8.90;2.93;;;;;;;10.94;100.00;99715.31;7392916;19;20424;-55
2022/05/12 06:28:50;;;;;;;35.07;10.70;;;;;;;11.15;100.00;99724.41;7385721;19;20490;-59
2022/05/12 06:31:24;;;;;;;13.77;5.53;;;;;;;11.18;100.00;99728.75;7393364;19;20385;-55
2022/05/12 06:33:54;;;;;;;12.90;4.70;;;;;;;11.32;100.00;99749.72;7383719;19;20470;-59
2022/05/12 06:36:28;;;;;;;15.00;6.40;;;;;;;11.38;100.00;99749.84;7391662;19;20411;-58
2022/05/12 06:38:57;;;;;;;12.93;5.33;;;;;;;11.50;100.00;99748.38;7386201;19;20428;-58
2022/05/12 06:41:30;;;;;;;13.07;4.50;;;;;;;11.45;100.00;99772.38;7393072;19;20390;-58
2022/05/12 06:44:00;;;;;;;13.50;4.37;;;;;;;11.50;100.00;99777.69;7384558;19;20518;-58
2022/05/12 06:46:29;;;;;;;30.17;9.53;;;;;;;11.58;100.00;99780.41;7394424;19;20428;-54
2022/05/12 06:49:02;;;;;;;64.77;18.80;;;;;;;11.62;100.00;99779.66;7387781;19;20470;-58
2022/05/12 06:51:32;;;;;;;41.47;9.87;;;;;;;11.66;100.00;99784.06;7394931;19;20405;-57
2022/05/12 06:54:02;;;;;;;16.60;4.77;;;;;;;11.59;100.00;99797.69;7386815;19;20445;-59
2022/05/12 06:56:34;;;;;;;19.17;7.13;;;;;;;11.78;100.00;99805.84;7392972;19;21181;-59
2022/05/12 06:59:04;;;;;;;12.63;3.73;;;;;;;11.69;100.00;99828.03;7389972;19;20417;-59
2022/05/12 07:01:33;;;;;;;46.70;14.97;;;;;;;11.87;100.00;99824.13;7393942;19;20715;-58
2022/05/12 07:04:03;;;;;;;25.40;6.83;;;;;;;11.87;100.00;99831.88;7385224;19;20441;-58
2022/05/12 07:06:33;;;;;;;12.60;4.40;;;;;;;11.83;100.00;99832.63;7391646;19;20435;-59
2022/05/12 07:09:03;;;;;;;14.87;5.20;;;;;;;11.60;100.00;99845.94;7385960;19;20486;-58
2022/05/12 07:11:35;;;;;;;16.63;5.37;;;;;;;11.55;100.00;99850.09;7393841;19;20732;-59
2022/05/12 07:14:04;;;;;;;6.50;2.53;;;;;;;11.63;100.00;99853.72;7391966;19;20440;-57
2022/05/12 07:16:34;;;;;;;8.10;2.67;;;;;;;11.77;100.00;99863.50;7399187;19;20436;-58
2022/05/12 07:19:04;;;;;;;8.17;2.20;;;;;;;11.92;100.00;99858.69;7396463;19;20464;-59
2022/05/12 07:27:00;;;;;;;16.60;5.17;;;;;;;11.81;100.00;99894.66;7400824;19;20406;-58
2022/05/12 07:29:34;;;;;;;9.87;3.10;;;;;;;12.09;100.00;99905.63;7396488;19;20437;-57
2022/05/12 07:32:03;;;;;;;13.00;5.07;;;;;;;12.36;100.00;99901.88;7401097;19;20397;-57
2022/05/12 07:34:33;;;;;;;16.80;4.83;;;;;;;12.33;100.00;99914.75;7392689;19;20441;-57
2022/05/12 07:37:03;;;;;;;11.57;4.30;;;;;;;11.98;100.00;99928.63;7400290;19;20395;-59
2022/05/12 07:39:34;;;;;;;6.07;2.53;;;;;;;11.98;100.00;99936.38;7395031;19;20449;-55
2022/05/12 07:42:07;;;;;;;8.80;3.40;;;;;;;11.88;100.00;99932.72;7403700;19;20406;-57
2022/05/12 07:44:37;;;;;;;12.80;2.70;;;;;;;11.90;100.00;99937.94;7391997;19;20455;-58
2022/05/12 07:47:09;;;;;;;10.00;4.20;;;;;;;11.96;100.00;99953.56;7403067;19;20888;-59
2022/05/12 07:49:39;;;;;;;10.83;3.47;;;;;;;12.11;100.00;99942.72;7395807;19;20454;-58
2022/05/12 07:52:12;;;;;;;14.57;3.90;;;;;;;12.11;100.00;99944.44;7399848;19;20992;-59
2022/05/12 07:54:41;;;;;;;9.47;3.30;;;;;;;12.02;100.00;99948.50;7392437;19;20455;-59
2022/05/12 07:57:13;;;;;;;9.43;3.40;;;;;;;12.16;100.00;99958.34;7402735;19;20398;-57
2022/05/12 07:59:44;;;;;;;12.17;3.80;;;;;;;12.61;100.00;99958.44;7392892;19;20520;-56
2022/05/12 08:02:16;;;;;;;8.13;3.70;;;;;;;12.81;100.00;99957.13;7399718;19;20947;-58
2022/05/12 08:04:47;;;;;;;5.23;2.40;;;;;;;12.65;100.00;99962.81;7390462;19;20518;-59
2022/05/12 08:07:16;;;;;;;7.40;2.40;;;;;;;12.44;100.00;99969.31;7399945;19;20397;-56
2022/05/12 08:09:46;;;;;;;7.90;2.73;;;;;;;12.69;100.00;99962.94;7394252;19;20442;-53
2022/05/12 08:12:18;;;;;;;8.50;2.97;;;;;;;12.67;100.00;99955.97;7399625;19;20484;-56
2022/05/12 08:14:48;;;;;;;6.87;2.80;;;;;;;12.79;100.00;99953.63;7392958;19;20456;-58
2022/05/12 08:17:17;;;;;;;12.57;5.00;;;;;;;13.20;100.00;99949.22;7399026;19;20405;-57
2022/05/12 08:19:47;;;;;;;11.23;4.80;;;;;;;13.00;100.00;99931.59;7393613;19;20442;-57
2022/05/12 08:22:16;;;;;;;6.03;2.77;;;;;;;13.05;100.00;99948.09;7401063;19;20398;-60
2022/05/12 08:24:46;;;;;;;6.60;2.50;;;;;;;13.10;100.00;99943.00;7390360;19;20456;-56
2022/05/12 08:27:18;;;;;;;14.83;3.43;;;;;;;13.07;100.00;99946.38;7401939;19;20408;-58
2022/05/12 08:29:48;;;;;;;9.10;2.20;;;;;;;13.21;100.00;99953.53;7389472;19;20459;-59
2022/05/12 08:32:17;;;;;;;7.30;2.67;;;;;;;13.18;100.00;99958.69;7401629;19;20422;-58
2022/05/12 08:34:47;;;;;;;4.30;1.83;;;;;;;13.17;100.00;99962.13;7392470;19;20453;-57
2022/05/12 08:37:18;;;;;;;8.23;2.00;;;;;;;13.04;100.00;99963.59;7400916;19;20414;-53
2022/05/12 08:39:47;;;;;;;7.67;2.20;;;;;;;13.29;100.00;99957.16;7393696;19;20459;-60
2022/05/12 08:42:24;;;;;;;14.30;5.73;;;;;;;13.58;100.00;99938.66;7400788;19;20498;-56
2022/05/12 08:44:54;;;;;;;11.20;4.50;;;;;;;13.73;100.00;99950.13;7386465;19;20578;-56
2022/05/12 08:47:29;;;;;;;7.73;2.20;;;;;;;13.81;100.00;99937.28;7400666;19;20409;-59
2022/05/12 08:49:59;;;;;;;8.77;4.23;;;;;;;13.91;100.00;99937.44;7401013;19;20776;-59
2022/05/12 08:52:34;;;;;;;3.17;1.40;;;;;;;13.36;100.00;99982.31;7399762;19;20928;-59
2022/05/12 08:55:13;;;;;;;7.67;3.20;;;;;;;13.88;100.00;99997.03;7394287;19;20506;-57
2022/05/12 08:57:56;;;;;;;7.30;2.30;;;;;;;14.19;100.00;100027.75;7391904;19;20470;-58
2022/05/12 09:00:27;;;;;;;11.87;3.30;;;;;;;13.87;100.00;100036.78;7398227;19;20403;-57
2022/05/12 09:03:07;;;;;;;19.47;5.43;;;;;;;13.67;100.00;100064.06;7393040;19;20742;-59
2022/05/12 09:05:40;;;;;;;12.20;3.30;;;;;;;13.59;100.00;100067.38;7395860;19;20431;-55
2022/05/12 09:08:15;;;;;;;27.00;8.27;;;;;;;13.48;100.00;100050.75;7393104;19;20413;-56
2022/05/12 09:10:57;;;;;;;12.40;4.57;;;;;;;13.73;100.00;100049.50;7397885;19;20422;-59
2022/05/12 09:13:34;;;;;;;6.10;2.70;;;;;;;13.73;100.00;100059.00;7390858;19;20432;-58
2022/05/12 09:16:11;;;;;;;8.53;3.60;;;;;;;13.56;100.00;100072.53;7398093;19;20488;-59
2022/05/12 09:18:41;;;;;;;8.07;2.40;;;;;;;13.35;100.00;100062.59;7391227;19;20446;-57
2022/05/12 09:21:13;;;;;;;8.80;3.70;;;;;;;13.72;100.00;100058.13;7398965;19;20932;-58
2022/05/12 09:23:45;;;;;;;9.57;2.67;;;;;;;13.89;100.00;100075.69;7390018;19;20429;-57
2022/05/12 09:26:34;;;;;;;7.23;2.43;;;;;;;14.05;100.00;100107.94;7397369;19;20434;-59
2022/05/12 09:29:15;;;;;;;22.03;7.13;;;;;;;14.01;100.00;100117.38;7389472;19;20465;-57
2022/05/12 09:31:47;;;;;;;5.03;2.40;;;;;;;13.75;100.00;100130.75;7399586;19;20483;-57
2022/05/12 09:34:23;;;;;;;6.23;1.87;;;;;;;13.91;100.00;100116.34;7388320;19;20451;-58
2022/05/12 09:36:53;;;;;;;7.40;2.30;;;;;;;14.10;100.00;100115.81;7395119;19;20436;-57
2022/05/12 09:39:40;;;;;;;9.43;3.00;;;;;;;14.22;100.00;100104.75;7389486;19;20536;-58
2022/05/12 09:42:15;;;;;;;9.87;3.33;;;;;;;14.02;100.00;100134.72;7399628;19;20502;-59
2022/05/12 09:44:59;;;;;;;17.40;4.07;;;;;;;14.04;100.00;100147.69;7389781;19;20844;-58
2022/05/12 09:47:30;;;;;;;7.43;2.43;;;;;;;13.95;100.00;100152.72;7396741;19;20426;-58
2022/05/12 09:50:16;;;;;;;7.07;1.80;;;;;;;13.89;100.00;100123.25;7398446;19;20442;-54
2022/05/12 09:52:46;;;;;;;8.60;2.30;;;;;;;14.39;100.00;100129.28;7390618;19;20477;-56
2022/05/12 09:55:19;;;;;;;6.20;2.13;;;;;;;14.62;100.00;100120.97;7396408;19;20431;-58
2022/05/12 09:57:55;;;;;;;9.23;2.50;;;;;;;14.66;100.00;100153.91;7380918;19;20760;-59
2022/05/12 10:00:34;;;;;;;9.90;3.00;;;;;;;14.76;100.00;100203.44;7398128;19;20437;-58
2022/05/12 10:08:42;;;;;;;9.10;1.70;;;;;;;15.27;100.00;100302.03;7388176;19;20427;-59
2022/05/12 10:11:13;;;;;;;6.00;1.80;;;;;;;15.22;100.00;100351.31;7394477;19;20920;-58
2022/05/12 10:13:47;;;;;;;5.10;1.10;;;;;;;14.73;100.00;100354.81;7366469;19;20478;-59
2022/05/12 10:16:21;;;;;;;3.50;0.90;;;;;;;14.21;100.00;100362.47;7393117;19;20438;-58
2022/05/12 10:18:54;;;;;;;4.97;1.20;;;;;;;14.16;100.00;100352.84;7379233;19;20418;-58
2022/05/12 10:21:26;;;;;;;9.00;3.63;;;;;;;14.30;100.00;100327.19;7393788;19;20399;-58
2022/05/12 10:24:06;;;;;;;19.87;8.70;;;;;;;14.44;100.00;100308.41;7382165;19;20420;-56
2022/05/12 10:26:40;;;;;;;23.30;8.57;;;;;;;14.93;100.00;100300.63;7391991;19;20527;-55
2022/05/12 10:29:24;;;;;;;12.27;4.00;;;;;;;15.36;100.00;100312.56;7384610;19;20418;-58
2022/05/12 10:32:02;;;;;;;41.77;12.37;;;;;;;15.35;100.00;100349.81;7393766;19;20405;-59
2022/05/12 10:34:43;;;;;;;14.37;2.90;;;;;;;15.59;100.00;100345.84;7357763;19;20455;-58
2022/05/12 10:37:28;;;;;;;20.43;6.13;;;;;;;15.25;100.00;100373.06;7393618;19;20391;-59
2022/05/12 10:40:04;;;;;;;14.10;3.90;;;;;;;14.99;100.00;100407.25;7390061;19;20432;-58
2022/05/12 10:42:40;;;;;;;19.13;5.97;;;;;;;15.17;100.00;100387.63;7390788;19;20391;-61
2022/05/12 10:45:17;;;;;;;6.80;2.20;;;;;;;15.33;100.00;100437.28;7394014;19;20453;-58
2022/05/12 10:48:03;;;;;;;16.07;5.60;;;;;;;15.31;100.00;100502.22;7386960;19;20914;-57
2022/05/12 10:50:39;;;;;;;3.17;0.97;;;;;;;14.86;100.00;100519.53;7396396;19;20462;-59
2022/05/12 10:53:25;;;;;;;5.73;1.33;;;;;;;14.83;100.00;100532.47;7389754;19;20510;-56
2022/05/12 10:56:03;;;;;;;6.27;2.00;;;;;;;14.95;100.00;100535.34;7394979;19;20426;-59
2022/05/12 10:58:38;;;;;;;8.50;2.13;;;;;;;14.70;100.00;100550.38;7362547;19;20414;-59
2022/05/12 11:01:19;;;;;;;5.40;1.77;;;;;;;14.68;100.00;100520.00;7395754;19;20472;-58
2022/05/12 11:03:55;;;;;;;9.23;2.30;;;;;;;15.27;100.00;100507.34;7374928;19;20442;-59
2022/05/12 11:06:29;;;;;;;6.13;1.97;;;;;;;15.70;100.00;100531.50;7394807;19;20494;-57
2022/05/12 11:09:06;;;;;;;6.73;1.77;;;;;;;16.11;100.00;100563.41;7387598;19;20436;-56
2022/05/12 11:11:40;;;;;;;8.20;1.50;;;;;;;16.50;100.00;100614.31;7395964;19;20776;-58
2022/05/12 11:14:13;;;;;;;4.87;1.13;;;;;;;16.76;100.00;100642.47;7381278;19;20436;-60
2022/05/12 11:16:47;;;;;;;7.20;1.27;;;;;;;16.83;100.00;100696.41;7392244;19;20497;-57
2022/05/12 11:19:23;;;;;;;6.00;1.03;;;;;;;16.52;100.00;100826.16;7375434;19;20429;-57
2022/05/12 11:22:00;;;;;;;3.40;1.23;;;;;;;16.43;100.00;100904.09;7396112;19;20382;-59
2022/05/12 11:24:38;;;;;;;4.83;1.83;;;;;;;16.42;100.00;100975.25;7353578;19;20467;-58
2022/05/12 11:27:21;;;;;;;5.70;1.43;;;;;;;16.31;100.00;101024.50;7394880;19;20410;-59
2022/05/12 11:30:05;;;;;;;4.03;1.00;;;;;;;16.04;100.00;101003.06;7389077;19;20460;-59
2022/05/12 11:32:44;;;;;;;7.00;1.40;;;;;;;15.80;100.00;101017.22;7389002;19;20393;-56
2022/05/12 11:35:21;;;;;;;3.97;1.40;;;;;;;16.00;100.00;101014.25;7393900;19;20429;-58
2022/05/12 11:38:06;;;;;;;5.47;1.07;;;;;;;16.33;100.00;101034.09;7387603;19;20516;-59
2022/05/12 11:40:52;;;;;;;5.40;1.40;;;;;;;16.50;100.00;101045.72;7394986;19;20386;-57
2022/05/12 11:46:44;;;;;;;11.90;1.70;;;;;;;15.96;100.00;101056.66;7393014;19;20422;-59
2022/05/12 11:49:29;;;;;;;3.53;1.10;;;;;;;16.21;100.00;101054.66;7389131;19;20452;-59
2022/05/12 11:52:09;;;;;;;6.20;1.53;;;;;;;16.33;100.00;101061.84;7395084;19;20412;-59
2022/05/12 11:54:42;;;;;;;7.20;1.50;;;;;;;16.23;100.00;101045.13;7385601;19;20439;-59
2022/05/12 11:57:23;;;;;;;10.03;1.30;;;;;;;16.21;100.00;101026.00;7394964;19;20723;-57
2022/05/12 11:59:54;;;;;;;4.60;1.33;;;;;;;16.36;100.00;101048.03;7391154;19;20519;-57